createdAt,value
2022-11-28T00:00:13.083Z,1001.31
2022-11-28T00:01:13.072Z,1001.33
2022-11-28T00:02:13.208Z,1001.34
2022-11-28T00:03:13.212Z,1001.24
2022-11-28T00:04:13.032Z,1001.31
2022-11-28T00:05:13.029Z,1001.27
2022-11-28T00:06:13.011Z,1001.28
2022-11-28T00:07:13.052Z,1001.26
2022-11-28T00:08:13.001Z,1001.26
2022-11-28T00:09:12.971Z,1001.26
2022-11-28T00:10:12.954Z,1001.25
2022-11-28T00:11:12.946Z,1001.15
2022-11-28T00:12:12.949Z,1001.17
2022-11-28T00:13:13.033Z,1001.16
2022-11-28T00:14:12.925Z,1001.09
2022-11-28T00:15:12.899Z,1001.09
2022-11-28T00:16:12.994Z,1001.12
2022-11-28T00:17:12.888Z,1001.02
2022-11-28T00:18:12.856Z,1001.05
2022-11-28T00:19:12.851Z,1001.07
2022-11-28T00:20:12.882Z,1001.03
2022-11-28T00:21:12.821Z,1001.09
2022-11-28T00:22:12.820Z,1001.04
2022-11-28T00:23:12.813Z,1001.00
2022-11-28T00:24:12.786Z,1000.95
2022-11-28T00:25:12.765Z,1000.93
2022-11-28T00:26:12.752Z,1000.98
2022-11-28T00:27:12.761Z,1000.95
2022-11-28T00:28:12.726Z,1000.94
2022-11-28T00:29:12.832Z,1000.94
2022-11-28T00:30:12.717Z,1001.01
2022-11-28T00:31:12.698Z,1001.02
2022-11-28T00:32:12.810Z,1001.02
2022-11-28T00:33:12.666Z,1001.07
2022-11-28T00:34:12.684Z,1001.08
2022-11-28T00:35:12.637Z,1001.12
2022-11-28T00:36:12.623Z,1001.06
2022-11-28T00:37:12.627Z,1001.12
2022-11-28T00:38:12.602Z,1001.14
2022-11-28T00:39:12.591Z,1001.12
2022-11-28T00:40:12.572Z,1001.11
2022-11-28T00:41:12.565Z,1001.05
2022-11-28T00:42:12.573Z,1001.02
2022-11-28T00:43:12.562Z,1000.97
2022-11-28T00:44:12.524Z,1001.00
2022-11-28T00:45:12.650Z,1000.98
2022-11-28T00:46:12.563Z,1001.01
2022-11-28T00:47:12.507Z,1001.02
2022-11-28T00:48:12.466Z,1000.99
2022-11-28T00:49:12.459Z,1000.94
2022-11-28T00:50:12.441Z,1000.97
2022-11-28T00:51:12.469Z,1000.97
2022-11-28T00:52:12.446Z,1000.92
2022-11-28T00:53:12.406Z,1000.96
2022-11-28T00:54:12.397Z,1000.97
2022-11-28T00:55:12.379Z,1000.88
2022-11-28T00:56:12.372Z,1000.89
2022-11-28T00:57:12.374Z,1000.88
2022-11-28T00:58:12.342Z,1000.86
2022-11-28T00:59:12.327Z,1000.83
2022-11-28T01:00:12.325Z,1000.86
2022-11-28T01:01:12.521Z,1000.83
2022-11-28T01:02:12.393Z,1000.73
2022-11-28T01:03:12.283Z,1000.76
2022-11-28T01:04:12.259Z,1000.71
2022-11-28T01:05:12.251Z,1000.73
2022-11-28T01:06:12.242Z,1000.76
2022-11-28T01:07:12.296Z,1000.68
2022-11-28T01:08:12.217Z,1000.71
2022-11-28T01:09:12.218Z,1000.64
2022-11-28T01:10:12.195Z,1000.66
2022-11-28T01:11:12.178Z,1000.61
2022-11-28T01:12:12.184Z,1000.68
2022-11-28T01:13:12.153Z,1000.64
2022-11-28T01:14:12.160Z,1000.59
2022-11-28T01:15:12.123Z,1000.64
2022-11-28T01:16:12.139Z,1000.67
2022-11-28T01:17:12.224Z,1000.63
2022-11-28T01:18:12.139Z,1000.65
2022-11-28T01:19:12.072Z,1000.61
2022-11-28T01:20:12.055Z,1000.66
2022-11-28T01:21:12.048Z,1000.66
2022-11-28T01:22:12.027Z,1000.59
2022-11-28T01:23:12.042Z,1000.60
2022-11-28T01:24:12.005Z,1000.62
2022-11-28T01:25:11.988Z,1000.68
2022-11-28T01:26:11.982Z,1000.63
2022-11-28T01:27:12.016Z,1000.62
2022-11-28T01:28:11.963Z,1000.63
2022-11-28T01:29:11.961Z,1000.61
2022-11-28T01:30:11.925Z,1000.59
2022-11-28T01:31:11.999Z,1000.59
2022-11-28T01:32:11.897Z,1000.56
2022-11-28T01:33:12.017Z,1000.53
2022-11-28T01:34:11.872Z,1000.54
2022-11-28T01:35:11.864Z,1000.48
2022-11-28T01:36:11.843Z,1000.48
2022-11-28T01:37:11.855Z,1000.45
2022-11-28T01:38:11.845Z,1000.42
2022-11-28T01:39:11.815Z,1000.44
2022-11-28T01:40:11.800Z,1000.43
2022-11-28T01:41:11.786Z,1000.45
2022-11-28T01:42:11.769Z,1000.46
2022-11-28T01:43:11.784Z,1000.41
2022-11-28T01:44:11.751Z,1000.43
2022-11-28T01:45:11.730Z,1000.38
2022-11-28T01:46:11.815Z,1000.33
2022-11-28T01:47:11.754Z,1000.35
2022-11-28T01:48:11.707Z,1000.27
2022-11-28T01:49:11.788Z,1000.25
2022-11-28T01:50:11.666Z,1000.25
2022-11-28T01:51:11.652Z,1000.26
2022-11-28T01:52:11.635Z,1000.18
2022-11-28T01:53:11.639Z,1000.23
2022-11-28T01:54:11.610Z,1000.25
2022-11-28T01:55:11.599Z,1000.23
2022-11-28T01:56:11.586Z,1000.23
2022-11-28T01:57:11.596Z,1000.24
2022-11-28T01:58:11.590Z,1000.27
2022-11-28T01:59:11.547Z,1000.21
2022-11-28T02:00:11.529Z,1000.20
2022-11-28T02:01:11.589Z,1000.17
2022-11-28T02:02:11.583Z,1000.24
2022-11-28T02:03:11.494Z,1000.22
2022-11-28T02:04:11.510Z,1000.20
2022-11-28T02:05:11.629Z,1000.18
2022-11-28T02:06:11.456Z,1000.22
2022-11-28T02:07:11.440Z,1000.19
2022-11-28T02:08:11.438Z,1000.16
2022-11-28T02:09:11.438Z,1000.20
2022-11-28T02:10:11.401Z,1000.17
2022-11-28T02:11:11.399Z,1000.19
2022-11-28T02:12:11.372Z,1000.20
2022-11-28T02:13:11.364Z,1000.19
2022-11-28T02:14:11.362Z,1000.20
2022-11-28T02:15:11.336Z,1000.17
2022-11-28T02:16:11.405Z,1000.20
2022-11-28T02:17:11.320Z,1000.17
2022-11-28T02:18:11.302Z,1000.16
2022-11-28T02:19:11.304Z,1000.15
2022-11-28T02:20:11.271Z,1000.06
2022-11-28T02:21:11.385Z,1000.13
2022-11-28T02:22:11.256Z,1000.12
2022-11-28T02:23:11.234Z,1000.10
2022-11-28T02:24:11.238Z,1000.12
2022-11-28T02:25:11.228Z,1000.15
2022-11-28T02:26:11.199Z,1000.09
2022-11-28T02:27:11.184Z,1000.11
2022-11-28T02:28:11.203Z,1000.15
2022-11-28T02:29:11.173Z,1000.12
2022-11-28T02:30:11.145Z,1000.10
2022-11-28T02:31:11.153Z,1000.09
2022-11-28T02:32:11.129Z,1000.10
2022-11-28T02:33:11.108Z,1000.10
2022-11-28T02:34:11.110Z,1000.10
2022-11-28T02:35:11.082Z,1000.06
2022-11-28T02:36:11.066Z,1000.10
2022-11-28T02:37:11.168Z,1000.01
2022-11-28T02:38:11.046Z,1000.08
2022-11-28T02:39:11.048Z,1000.05
2022-11-28T02:40:11.017Z,1000.02
2022-11-28T02:41:11.025Z,1000.00
2022-11-28T02:42:10.986Z,999.99
2022-11-28T02:43:10.979Z,999.95
2022-11-28T02:44:10.976Z,999.90
2022-11-28T02:45:10.954Z,999.89
2022-11-28T02:46:10.934Z,999.86
2022-11-28T02:47:11.112Z,999.81
2022-11-28T02:48:10.920Z,999.88
2022-11-28T02:49:10.928Z,999.87
2022-11-28T02:50:10.880Z,999.84
2022-11-28T02:51:10.867Z,999.87
2022-11-28T02:52:10.856Z,999.82
2022-11-28T02:53:10.954Z,999.87
2022-11-28T02:54:10.843Z,999.90
2022-11-28T02:55:10.818Z,999.91
2022-11-28T02:56:10.802Z,999.94
2022-11-28T02:57:10.789Z,999.95
2022-11-28T02:58:10.774Z,999.92
2022-11-28T02:59:10.781Z,999.90
2022-11-28T03:00:15.117Z,999.92
2022-11-28T03:01:11.810Z,999.90
2022-11-28T03:02:10.826Z,999.90
2022-11-28T03:03:10.710Z,999.92
2022-11-28T03:04:10.698Z,999.90
2022-11-28T03:05:10.703Z,999.85
2022-11-28T03:06:10.672Z,999.93
2022-11-28T03:07:10.659Z,999.86
2022-11-28T03:08:10.642Z,999.85
2022-11-28T03:09:10.746Z,999.81
2022-11-28T03:10:10.639Z,999.81
2022-11-28T03:11:10.611Z,999.77
2022-11-28T03:12:10.593Z,999.81
2022-11-28T03:13:10.587Z,999.87
2022-11-28T03:14:10.571Z,999.84
2022-11-28T03:15:10.585Z,999.87
2022-11-28T03:16:10.610Z,999.88
2022-11-28T03:17:10.532Z,999.89
2022-11-28T03:18:10.522Z,999.90
2022-11-28T03:19:10.504Z,999.94
2022-11-28T03:20:10.509Z,999.89
2022-11-28T03:21:10.483Z,999.91
2022-11-28T03:22:10.465Z,999.86
2022-11-28T03:23:10.462Z,999.88
2022-11-28T03:24:10.442Z,999.88
2022-11-28T03:25:10.598Z,999.90
2022-11-28T03:26:10.428Z,999.91
2022-11-28T03:27:10.404Z,999.82
2022-11-28T03:28:10.412Z,999.88
2022-11-28T03:29:10.378Z,999.85
2022-11-28T03:30:10.385Z,999.90
2022-11-28T03:31:10.410Z,999.89
2022-11-28T03:32:10.345Z,999.91
2022-11-28T03:33:10.330Z,999.86
2022-11-28T03:34:10.342Z,999.89
2022-11-28T03:35:10.313Z,999.86
2022-11-28T03:36:10.295Z,999.83
2022-11-28T03:37:10.278Z,999.87
2022-11-28T03:38:10.263Z,999.83
2022-11-28T03:39:10.256Z,999.73
2022-11-28T03:40:10.257Z,999.71
2022-11-28T03:41:10.331Z,999.68
2022-11-28T03:42:10.212Z,999.74
2022-11-28T03:43:10.197Z,999.77
2022-11-28T03:44:10.186Z,999.76
2022-11-28T03:45:10.188Z,999.76
2022-11-28T03:46:10.159Z,999.71
2022-11-28T03:47:10.323Z,999.68
2022-11-28T03:48:10.139Z,999.69
2022-11-28T03:49:10.118Z,999.67
2022-11-28T03:50:10.127Z,999.71
2022-11-28T03:51:10.094Z,999.61
2022-11-28T03:52:10.088Z,999.59
2022-11-28T03:53:10.070Z,999.56
2022-11-28T03:54:10.058Z,999.59
2022-11-28T03:55:10.065Z,999.59
2022-11-28T03:56:10.130Z,999.60
2022-11-28T03:57:10.131Z,999.49
2022-11-28T03:58:10.009Z,999.52
2022-11-28T03:59:10.000Z,999.47
2022-11-28T04:00:10.009Z,999.46
2022-11-28T04:01:10.038Z,999.41
2022-11-28T04:02:09.962Z,999.41
2022-11-28T04:03:09.987Z,999.42
2022-11-28T04:04:09.936Z,999.39
2022-11-28T04:05:09.940Z,999.33
2022-11-28T04:06:09.902Z,999.35
2022-11-28T04:07:09.903Z,999.31
2022-11-28T04:08:09.881Z,999.29
2022-11-28T04:09:14.235Z,999.40
2022-11-28T04:10:09.854Z,999.40
2022-11-28T04:11:09.856Z,999.33
2022-11-28T04:12:09.831Z,999.28
2022-11-28T04:13:09.928Z,999.35
2022-11-28T04:14:09.804Z,999.25
2022-11-28T04:15:09.790Z,999.32
2022-11-28T04:16:09.814Z,999.30
2022-11-28T04:17:09.766Z,999.35
2022-11-28T04:18:09.752Z,999.39
2022-11-28T04:19:09.737Z,999.28
2022-11-28T04:20:09.725Z,999.31
2022-11-28T04:21:09.729Z,999.23
2022-11-28T04:22:09.706Z,999.20
2022-11-28T04:23:09.692Z,999.21
2022-11-28T04:24:09.673Z,999.21
2022-11-28T04:25:09.677Z,999.25
2022-11-28T04:26:09.664Z,999.19
2022-11-28T04:27:09.635Z,999.22
2022-11-28T04:28:09.627Z,999.19
2022-11-28T04:29:09.721Z,999.17
2022-11-28T04:30:09.603Z,999.18
2022-11-28T04:31:09.638Z,999.23
2022-11-28T04:32:09.574Z,999.20
2022-11-28T04:33:09.557Z,999.17
2022-11-28T04:34:09.548Z,999.15
2022-11-28T04:35:09.536Z,999.16
2022-11-28T04:36:09.546Z,999.15
2022-11-28T04:37:10.019Z,999.12
2022-11-28T04:38:09.501Z,999.13
2022-11-28T04:39:09.480Z,999.06
2022-11-28T04:40:09.472Z,999.09
2022-11-28T04:41:09.475Z,999.07
2022-11-28T04:42:09.448Z,999.04
2022-11-28T04:43:09.429Z,999.03
2022-11-28T04:44:09.421Z,999.05
2022-11-28T04:45:09.517Z,999.03
2022-11-28T04:46:09.489Z,998.97
2022-11-28T04:47:09.381Z,999.04
2022-11-28T04:48:09.369Z,999.02
2022-11-28T04:49:09.354Z,999.03
2022-11-28T04:50:09.345Z,999.02
2022-11-28T04:51:09.361Z,999.01
2022-11-28T04:52:09.320Z,998.97
2022-11-28T04:53:09.308Z,998.96
2022-11-28T04:54:09.289Z,998.99
2022-11-28T04:55:09.276Z,998.94
2022-11-28T04:56:09.280Z,998.93
2022-11-28T04:57:09.259Z,998.94
2022-11-28T04:58:09.243Z,998.91
2022-11-28T04:59:09.230Z,998.85
2022-11-28T05:00:09.214Z,998.78
2022-11-28T05:01:09.413Z,998.87
2022-11-28T05:02:09.283Z,998.83
2022-11-28T05:03:09.172Z,998.77
2022-11-28T05:04:09.161Z,998.77
2022-11-28T05:05:09.180Z,998.84
2022-11-28T05:06:09.152Z,998.73
2022-11-28T05:07:09.122Z,998.80
2022-11-28T05:08:09.111Z,998.79
2022-11-28T05:09:09.096Z,998.77
2022-11-28T05:10:09.085Z,998.86
2022-11-28T05:11:09.092Z,998.80
2022-11-28T05:12:09.059Z,998.88
2022-11-28T05:13:09.045Z,998.82
2022-11-28T05:14:09.040Z,998.82
2022-11-28T05:15:09.018Z,998.75
2022-11-28T05:16:09.128Z,998.81
2022-11-28T05:17:09.135Z,998.91
2022-11-28T05:18:08.987Z,998.85
2022-11-28T05:19:08.971Z,998.91
2022-11-28T05:20:08.957Z,998.94
2022-11-28T05:21:08.986Z,998.92
2022-11-28T05:22:08.933Z,998.90
2022-11-28T05:23:08.926Z,998.89
2022-11-28T05:24:08.905Z,998.87
2022-11-28T05:25:08.893Z,998.87
2022-11-28T05:26:08.915Z,998.90
2022-11-28T05:27:08.871Z,998.82
2022-11-28T05:28:08.858Z,998.85
2022-11-28T05:29:08.842Z,998.90
2022-11-28T05:30:08.830Z,998.93
2022-11-28T05:31:08.868Z,998.85
2022-11-28T05:32:08.818Z,998.91
2022-11-28T05:33:08.902Z,998.86
2022-11-28T05:34:08.779Z,998.90
2022-11-28T05:35:08.767Z,998.88
2022-11-28T05:36:12.946Z,998.89
2022-11-28T05:37:08.757Z,998.92
2022-11-28T05:38:13.406Z,998.90
2022-11-28T05:39:08.714Z,998.92
2022-11-28T05:40:08.702Z,998.90
2022-11-28T05:41:08.691Z,998.92
2022-11-28T05:42:08.691Z,998.92
2022-11-28T05:43:08.661Z,998.90
2022-11-28T05:44:08.649Z,998.86
2022-11-28T05:45:08.633Z,998.86
2022-11-28T05:46:08.664Z,998.90
2022-11-28T05:47:08.624Z,998.86
2022-11-28T05:48:08.598Z,998.91
2022-11-28T05:49:08.697Z,998.92
2022-11-28T05:50:08.577Z,998.81
2022-11-28T05:51:08.558Z,998.91
2022-11-28T05:52:08.563Z,998.89
2022-11-28T05:53:08.537Z,998.84
2022-11-28T05:54:08.523Z,998.83
2022-11-28T05:55:08.515Z,998.77
2022-11-28T05:56:08.504Z,998.84
2022-11-28T05:57:08.497Z,998.83
2022-11-28T05:58:08.483Z,998.80
2022-11-28T05:59:08.461Z,998.79
2022-11-28T06:00:08.448Z,998.79
2022-11-28T06:01:08.432Z,998.78
2022-11-28T06:02:08.524Z,998.84
2022-11-28T06:03:08.408Z,998.83
2022-11-28T06:04:08.493Z,998.83
2022-11-28T06:05:27.713Z,998.86
2022-11-28T06:06:09.374Z,998.87
2022-11-28T06:07:08.394Z,998.84
2022-11-28T06:08:08.355Z,998.80
2022-11-28T06:09:08.350Z,998.78
2022-11-28T06:10:08.325Z,998.83
2022-11-28T06:11:08.315Z,998.85
2022-11-28T06:12:08.314Z,998.80
2022-11-28T06:13:08.308Z,998.83
2022-11-28T06:14:08.279Z,998.82
2022-11-28T06:15:08.253Z,998.81
2022-11-28T06:16:08.341Z,998.77
2022-11-28T06:17:08.252Z,998.81
2022-11-28T06:18:08.217Z,998.83
2022-11-28T06:19:08.205Z,998.87
2022-11-28T06:20:08.216Z,998.90
2022-11-28T06:21:08.295Z,998.94
2022-11-28T06:22:08.199Z,998.96
2022-11-28T06:23:08.152Z,999.02
2022-11-28T06:24:08.148Z,999.03
2022-11-28T06:25:08.131Z,999.07
2022-11-28T06:26:08.119Z,999.02
2022-11-28T06:27:08.119Z,998.93
2022-11-28T06:28:08.092Z,998.93
2022-11-28T06:29:08.076Z,998.96
2022-11-28T06:30:08.067Z,998.87
2022-11-28T06:31:08.050Z,998.86
2022-11-28T06:32:08.147Z,998.97
2022-11-28T06:33:08.027Z,998.96
2022-11-28T06:34:08.028Z,998.95
2022-11-28T06:35:07.999Z,998.98
2022-11-28T06:36:07.989Z,998.98
2022-11-28T06:37:08.102Z,998.95
2022-11-28T06:38:11.504Z,998.97
2022-11-28T06:39:08.948Z,998.88
2022-11-28T06:40:07.937Z,998.95
2022-11-28T06:41:07.927Z,998.97
2022-11-28T06:42:07.931Z,998.94
2022-11-28T06:43:07.895Z,998.92
2022-11-28T06:44:07.883Z,998.91
2022-11-28T06:45:07.868Z,998.92
2022-11-28T06:46:09.929Z,998.94
2022-11-28T06:47:07.850Z,998.94
2022-11-28T06:48:07.853Z,998.88
2022-11-28T06:49:07.820Z,998.91
2022-11-28T06:50:07.808Z,998.89
2022-11-28T06:51:07.790Z,998.88
2022-11-28T06:52:07.786Z,998.88
2022-11-28T06:53:07.894Z,998.75
2022-11-28T06:54:07.756Z,998.83
2022-11-28T06:55:07.750Z,998.73
2022-11-28T06:56:07.735Z,998.73
2022-11-28T06:57:07.716Z,998.80
2022-11-28T06:58:07.722Z,998.74
2022-11-28T06:59:07.700Z,998.76
2022-11-28T07:00:07.694Z,998.77
2022-11-28T07:01:07.758Z,998.77
2022-11-28T07:02:08.161Z,998.76
2022-11-28T07:03:07.676Z,998.82
2022-11-28T07:04:07.625Z,998.86
2022-11-28T07:05:07.617Z,998.86
2022-11-28T07:06:07.605Z,998.81
2022-11-28T07:07:07.590Z,998.81
2022-11-28T07:08:07.675Z,998.83
2022-11-28T07:09:07.676Z,998.90
2022-11-28T07:10:07.563Z,998.84
2022-11-28T07:11:07.546Z,998.84
2022-11-28T07:12:07.526Z,998.94
2022-11-28T07:13:07.531Z,998.85
2022-11-28T07:14:07.507Z,998.87
2022-11-28T07:15:07.496Z,998.89
2022-11-28T07:16:07.501Z,998.92
2022-11-28T07:17:07.528Z,998.93
2022-11-28T07:18:07.465Z,998.91
2022-11-28T07:19:07.436Z,998.95
2022-11-28T07:20:07.438Z,998.95
2022-11-28T07:21:07.407Z,998.97
2022-11-28T07:22:07.404Z,998.98
2022-11-28T07:23:07.411Z,999.01
2022-11-28T07:24:07.388Z,999.05
2022-11-28T07:25:07.466Z,999.07
2022-11-28T07:26:07.355Z,999.08
2022-11-28T07:27:07.336Z,999.05
2022-11-28T07:28:07.342Z,999.05
2022-11-28T07:29:07.323Z,999.05
2022-11-28T07:30:07.296Z,999.06
2022-11-28T07:31:07.289Z,999.08
2022-11-28T07:32:07.319Z,999.03
2022-11-28T07:33:07.270Z,999.02
2022-11-28T07:34:07.247Z,999.09
2022-11-28T07:35:07.225Z,999.08
2022-11-28T07:36:07.218Z,999.09
2022-11-28T07:37:07.201Z,999.05
2022-11-28T07:38:07.187Z,999.05
2022-11-28T07:39:07.190Z,999.03
2022-11-28T07:40:07.166Z,999.12
2022-11-28T07:41:07.263Z,999.09
2022-11-28T07:42:07.156Z,999.08
2022-11-28T07:43:07.121Z,999.04
2022-11-28T07:44:07.137Z,999.01
2022-11-28T07:45:07.107Z,999.05
2022-11-28T07:46:07.172Z,999.04
2022-11-28T07:47:07.116Z,999.03
2022-11-28T07:48:07.065Z,998.96
2022-11-28T07:49:07.071Z,999.01
2022-11-28T07:50:07.040Z,999.04
2022-11-28T07:51:07.028Z,999.02
2022-11-28T07:52:07.006Z,999.03
2022-11-28T07:53:07.507Z,999.07
2022-11-28T07:54:06.998Z,999.09
2022-11-28T07:55:06.975Z,999.04
2022-11-28T07:56:06.959Z,999.12
2022-11-28T07:57:14.141Z,999.13
2022-11-28T07:58:07.935Z,999.12
2022-11-28T07:59:06.935Z,999.13
2022-11-28T08:00:06.912Z,999.22
2022-11-28T08:01:06.901Z,999.15
2022-11-28T08:02:06.931Z,999.13
2022-11-28T08:03:06.870Z,999.11
2022-11-28T08:04:06.965Z,999.10
2022-11-28T08:05:06.859Z,999.09
2022-11-28T08:06:06.833Z,999.09
2022-11-28T08:07:06.824Z,999.11
2022-11-28T08:08:06.904Z,999.02
2022-11-28T08:09:06.812Z,999.08
2022-11-28T08:10:06.780Z,999.04
2022-11-28T08:11:06.764Z,999.05
2022-11-28T08:12:06.774Z,999.12
2022-11-28T08:13:06.760Z,999.09
2022-11-28T08:14:06.745Z,999.07
2022-11-28T08:15:06.726Z,999.13
2022-11-28T08:16:06.919Z,999.10
2022-11-28T08:17:06.760Z,999.11
2022-11-28T08:18:06.675Z,999.09
2022-11-28T08:19:06.679Z,999.13
2022-11-28T08:20:06.651Z,999.14
2022-11-28T08:21:06.640Z,999.14
2022-11-28T08:22:06.636Z,999.16
2022-11-28T08:23:06.616Z,999.18
2022-11-28T08:24:06.612Z,999.11
2022-11-28T08:25:06.592Z,999.18
2022-11-28T08:26:06.575Z,999.17
2022-11-28T08:27:06.564Z,999.19
2022-11-28T08:28:06.550Z,999.19
2022-11-28T08:29:06.571Z,999.18
2022-11-28T08:30:06.526Z,999.14
2022-11-28T08:31:06.565Z,999.15
2022-11-28T08:32:06.495Z,999.14
2022-11-28T08:33:06.485Z,999.20
2022-11-28T08:34:06.491Z,999.18
2022-11-28T08:35:06.463Z,999.10
2022-11-28T08:36:06.447Z,999.12
2022-11-28T08:37:06.431Z,999.12
2022-11-28T08:38:06.419Z,999.08
2022-11-28T08:40:06.397Z,999.04
2022-11-28T08:41:06.397Z,999.01
2022-11-28T08:42:06.370Z,999.03
2022-11-28T08:43:06.358Z,999.01
2022-11-28T08:44:06.363Z,998.99
2022-11-28T08:45:06.369Z,998.97
2022-11-28T08:46:06.374Z,998.98
2022-11-28T08:47:06.312Z,998.93
2022-11-28T08:48:06.296Z,998.93
2022-11-28T08:49:06.315Z,998.88
2022-11-28T08:50:06.268Z,998.89
2022-11-28T08:51:06.264Z,998.93
2022-11-28T08:52:06.237Z,998.92
2022-11-28T08:53:07.883Z,998.84
2022-11-28T08:54:06.220Z,998.90
2022-11-28T08:55:06.228Z,998.94
2022-11-28T08:56:06.186Z,998.93
2022-11-28T08:57:06.181Z,998.95
2022-11-28T08:58:06.172Z,998.94
2022-11-28T08:59:06.167Z,998.95
2022-11-28T09:00:06.149Z,998.93
2022-11-28T09:01:06.230Z,998.92
2022-11-28T09:02:06.113Z,998.98
2022-11-28T09:03:06.102Z,999.01
2022-11-28T09:04:06.155Z,998.95
2022-11-28T09:05:06.087Z,999.04
2022-11-28T09:06:06.063Z,999.02
2022-11-28T09:07:06.047Z,999.07
2022-11-28T09:08:10.266Z,999.08
2022-11-28T09:09:06.026Z,999.11
2022-11-28T09:10:06.027Z,999.06
2022-11-28T09:11:05.995Z,999.14
2022-11-28T09:12:05.980Z,999.15
2022-11-28T09:13:05.976Z,999.11
2022-11-28T09:14:05.959Z,999.22
2022-11-28T09:15:05.962Z,999.13
2022-11-28T09:16:05.933Z,999.14
2022-11-28T09:17:06.057Z,999.14
2022-11-28T09:18:05.908Z,999.08
2022-11-28T09:19:05.910Z,999.09
2022-11-28T09:20:05.895Z,999.13
2022-11-28T09:21:05.870Z,999.13
2022-11-28T09:22:05.855Z,999.13
2022-11-28T09:23:05.854Z,999.10
2022-11-28T09:24:05.832Z,999.11
2022-11-28T09:25:05.831Z,999.05
2022-11-28T09:26:05.801Z,999.04
2022-11-28T09:27:05.788Z,999.00
2022-11-28T09:28:05.774Z,998.95
2022-11-28T09:29:05.765Z,999.06
2022-11-28T09:30:05.771Z,999.01
2022-11-28T09:31:05.791Z,998.96
2022-11-28T09:32:05.721Z,999.04
2022-11-28T09:33:05.728Z,998.99
2022-11-28T09:34:05.706Z,998.98
2022-11-28T09:35:05.702Z,999.02
2022-11-28T09:36:05.670Z,998.99
2022-11-28T09:37:05.663Z,999.01
2022-11-28T09:38:05.646Z,998.99
2022-11-28T09:39:05.635Z,999.02
2022-11-28T09:40:13.284Z,998.99
2022-11-28T09:41:06.608Z,999.01
2022-11-28T09:42:05.591Z,998.93
2022-11-28T09:43:05.580Z,999.00
2022-11-28T09:44:05.565Z,999.03
2022-11-28T09:45:05.576Z,999.02
2022-11-28T09:46:05.593Z,999.00
2022-11-28T09:47:05.530Z,999.03
2022-11-28T09:48:05.513Z,999.00
2022-11-28T09:49:05.520Z,999.02
2022-11-28T09:50:05.514Z,998.95
2022-11-28T09:51:05.476Z,998.97
2022-11-28T09:52:05.495Z,998.98
2022-11-28T09:53:05.453Z,998.98
2022-11-28T09:54:05.442Z,998.98
2022-11-28T09:55:05.446Z,999.01
2022-11-28T09:56:05.411Z,998.89
2022-11-28T09:57:05.400Z,998.89
2022-11-28T09:58:05.388Z,999.01
2022-11-28T09:59:05.373Z,998.89
2022-11-28T10:00:05.381Z,998.96
2022-11-28T10:01:05.347Z,998.94
2022-11-28T10:02:05.340Z,998.96
2022-11-28T10:03:05.468Z,998.92
2022-11-28T10:04:05.414Z,998.97
2022-11-28T10:05:05.476Z,998.95
2022-11-28T10:06:05.298Z,998.97
2022-11-28T10:07:05.271Z,999.01
2022-11-28T10:08:05.312Z,999.02
2022-11-28T10:09:05.248Z,998.95
2022-11-28T10:10:05.233Z,998.97
2022-11-28T10:11:05.236Z,998.87
2022-11-28T10:12:05.211Z,998.91
2022-11-28T10:13:05.189Z,998.94
2022-11-28T10:14:08.945Z,998.91
2022-11-28T10:15:05.176Z,998.90
2022-11-28T10:16:05.168Z,998.92
2022-11-28T10:17:05.237Z,998.93
2022-11-28T10:18:05.125Z,998.93
2022-11-28T10:19:05.128Z,998.82
2022-11-28T10:20:05.110Z,998.85
2022-11-28T10:21:05.138Z,998.86
2022-11-28T10:22:05.077Z,998.85
2022-11-28T10:23:05.070Z,998.86
2022-11-28T10:24:05.049Z,998.84
2022-11-28T10:25:05.041Z,998.78
2022-11-28T10:26:05.046Z,998.78
2022-11-28T10:27:05.015Z,998.75
2022-11-28T10:28:05.012Z,998.72
2022-11-28T10:29:05.001Z,998.75
2022-11-28T10:30:04.975Z,998.69
2022-11-28T10:31:05.069Z,998.74
2022-11-28T10:32:04.971Z,998.75
2022-11-28T10:33:04.937Z,998.70
2022-11-28T10:34:04.924Z,998.73
2022-11-28T10:35:04.911Z,998.67
2022-11-28T10:36:04.915Z,998.63
2022-11-28T10:37:04.912Z,998.63
2022-11-28T10:38:04.872Z,998.62
2022-11-28T10:39:09.834Z,998.56
2022-11-28T10:40:04.849Z,998.61
2022-11-28T10:41:04.852Z,998.57
2022-11-28T10:42:04.822Z,998.53
2022-11-28T10:43:04.809Z,998.61
2022-11-28T10:44:04.807Z,998.56
2022-11-28T10:45:04.806Z,998.60
2022-11-28T10:46:04.841Z,998.59
2022-11-28T10:47:04.762Z,998.58
2022-11-28T10:48:29.897Z,998.58
2022-11-28T10:49:05.735Z,998.58
2022-11-28T10:50:04.730Z,998.56
2022-11-28T10:51:04.776Z,998.58
2022-11-28T10:52:04.699Z,998.56
2022-11-28T10:53:04.718Z,998.55
2022-11-28T10:54:04.673Z,998.53
2022-11-28T10:55:04.655Z,998.56
2022-11-28T10:56:08.516Z,998.59
2022-11-28T10:57:04.635Z,998.57
2022-11-28T10:58:04.619Z,998.58
2022-11-28T10:59:04.616Z,998.56
2022-11-28T11:00:04.591Z,998.58
2022-11-28T11:01:04.673Z,998.58
2022-11-28T11:02:04.634Z,998.50
2022-11-28T11:03:04.567Z,998.57
2022-11-28T11:04:04.591Z,998.56
2022-11-28T11:05:04.622Z,998.56
2022-11-28T11:06:04.536Z,998.51
2022-11-28T11:07:12.631Z,998.50
2022-11-28T11:08:05.571Z,998.49
2022-11-28T11:09:04.499Z,998.56
2022-11-28T11:10:04.467Z,998.51
2022-11-28T11:11:04.489Z,998.50
2022-11-28T11:12:04.436Z,998.52
2022-11-28T11:13:04.424Z,998.48
2022-11-28T11:14:04.414Z,998.52
2022-11-28T11:15:04.406Z,998.54
2022-11-28T11:16:04.529Z,998.44
2022-11-28T11:17:04.391Z,998.44
2022-11-28T11:18:04.362Z,998.45
2022-11-28T11:19:04.347Z,998.42
2022-11-28T11:20:04.332Z,998.39
2022-11-28T11:21:04.319Z,998.37
2022-11-28T11:22:04.321Z,998.40
2022-11-28T11:23:04.292Z,998.39
2022-11-28T11:24:04.279Z,998.38
2022-11-28T11:25:04.343Z,998.41
2022-11-28T11:26:04.251Z,998.41
2022-11-28T11:27:04.257Z,998.39
2022-11-28T11:28:04.239Z,998.34
2022-11-28T11:29:04.213Z,998.33
2022-11-28T11:30:04.197Z,998.38
2022-11-28T11:31:04.289Z,998.32
2022-11-28T11:32:04.187Z,998.37
2022-11-28T11:33:04.174Z,998.35
2022-11-28T11:34:04.147Z,998.32
2022-11-28T11:35:04.142Z,998.33
2022-11-28T11:36:04.120Z,998.28
2022-11-28T11:37:04.126Z,998.28
2022-11-28T11:38:04.104Z,998.27
2022-11-28T11:39:04.082Z,998.24
2022-11-28T11:40:04.067Z,998.29
2022-11-28T11:41:04.082Z,998.25
2022-11-28T11:42:04.071Z,998.34
2022-11-28T11:43:04.051Z,998.30
2022-11-28T11:44:04.023Z,998.34
2022-11-28T11:45:04.016Z,998.40
2022-11-28T11:46:04.090Z,998.40
2022-11-28T11:47:03.992Z,998.30
2022-11-28T11:48:03.974Z,998.28
2022-11-28T11:49:03.963Z,998.32
2022-11-28T11:50:03.943Z,998.30
2022-11-28T11:51:03.930Z,998.29
2022-11-28T11:52:03.943Z,998.33
2022-11-28T11:53:03.912Z,998.33
2022-11-28T11:54:03.892Z,998.32
2022-11-28T11:55:03.883Z,998.30
2022-11-28T11:56:03.866Z,998.27
2022-11-28T11:57:31.274Z,998.27
2022-11-28T11:58:06.061Z,998.28
2022-11-28T11:59:03.825Z,998.30
2022-11-28T12:00:03.813Z,998.32
2022-11-28T12:01:03.802Z,998.30
2022-11-28T12:02:03.808Z,998.34
2022-11-28T12:03:03.943Z,998.20
2022-11-28T12:04:17.932Z,998.25
2022-11-28T12:05:03.834Z,998.30
2022-11-28T12:06:14.332Z,998.30
2022-11-28T12:07:04.767Z,998.27
2022-11-28T12:08:03.767Z,998.26
2022-11-28T12:09:03.702Z,998.31
2022-11-28T12:10:04.889Z,998.41
2022-11-28T12:11:03.675Z,998.38
2022-11-28T12:12:03.673Z,998.28
2022-11-28T12:13:03.666Z,998.40
2022-11-28T12:14:03.655Z,998.35
2022-11-28T12:15:03.620Z,998.40
2022-11-28T12:16:03.675Z,998.35
2022-11-28T12:17:19.496Z,998.35
2022-11-28T12:18:03.586Z,998.38
2022-11-28T12:19:03.586Z,998.33
2022-11-28T12:20:03.559Z,998.35
2022-11-28T12:21:03.578Z,998.33
2022-11-28T12:22:03.560Z,998.38
2022-11-28T12:23:03.520Z,998.38
2022-11-28T12:24:03.512Z,998.33